createdAt,value
2023-01-01T00:02:50.527Z,13.81
2023-01-01T00:08:04.687Z,13.78
2023-01-01T00:13:16.533Z,13.71
2023-01-01T00:18:24.767Z,13.66
2023-01-01T00:23:32.951Z,13.63
2023-01-01T00:28:41.859Z,13.61
2023-01-01T00:33:52.001Z,13.57
2023-01-01T00:39:00.631Z,13.55
2023-01-01T00:44:08.696Z,13.54
2023-01-01T00:49:16.821Z,13.53
2023-01-01T00:54:24.970Z,13.53
2023-01-01T00:59:32.947Z,13.55
2023-01-01T01:04:41.247Z,13.56
2023-01-01T01:09:48.526Z,13.57
2023-01-01T01:14:56.633Z,13.57
2023-01-01T01:20:04.927Z,13.58
2023-01-01T01:25:13.869Z,13.58
2023-01-01T01:30:22.623Z,13.58
2023-01-01T01:35:30.779Z,13.59
2023-01-01T01:40:38.955Z,13.59
2023-01-01T01:45:46.940Z,13.61
2023-01-01T01:50:57.267Z,13.62
2023-01-01T01:56:09.692Z,13.62
2023-01-01T02:01:18.237Z,13.63
2023-01-01T02:06:27.135Z,13.62
2023-01-01T02:11:35.436Z,13.58
2023-01-01T02:16:50.234Z,13.54
2023-01-01T02:22:12.841Z,13.51
2023-01-01T02:27:29.923Z,13.49
2023-01-01T02:32:42.890Z,13.49
2023-01-01T02:37:53.144Z,13.47
2023-01-01T02:43:03.554Z,13.47
2023-01-01T02:48:40.081Z,13.47
2023-01-01T02:53:54.464Z,13.47
2023-01-01T02:59:35.014Z,13.47
2023-01-01T03:04:53.327Z,13.49
2023-01-01T03:10:06.954Z,13.49
2023-01-01T03:15:22.592Z,13.50
2023-01-01T03:20:33.658Z,13.51
2023-01-01T03:25:46.390Z,13.52
2023-01-01T03:30:56.074Z,13.53
2023-01-01T03:36:09.010Z,13.53
2023-01-01T03:41:29.833Z,13.54
2023-01-01T03:46:39.613Z,13.54
2023-01-01T03:52:02.344Z,13.53
2023-01-01T03:57:17.058Z,13.54
2023-01-01T04:02:29.864Z,13.54
2023-01-01T04:07:39.717Z,13.55
2023-01-01T04:12:49.456Z,13.55
2023-01-01T04:17:57.892Z,13.56
2023-01-01T04:23:06.524Z,13.58
2023-01-01T04:28:14.496Z,13.60
2023-01-01T04:33:22.635Z,13.63
2023-01-01T04:38:31.033Z,13.66
2023-01-01T04:43:39.092Z,13.69
2023-01-01T04:48:47.196Z,13.71
2023-01-01T04:53:55.313Z,13.73
2023-01-01T04:59:03.366Z,13.75
2023-01-01T05:04:14.294Z,13.78
2023-01-01T05:09:22.351Z,13.82
2023-01-01T05:14:30.276Z,13.85
2023-01-01T05:19:38.323Z,13.88
2023-01-01T05:24:46.456Z,13.91
2023-01-01T05:29:54.525Z,13.94
2023-01-01T05:35:02.408Z,13.96
2023-01-01T05:40:13.494Z,13.97
2023-01-01T05:45:21.636Z,13.95
2023-01-01T05:50:29.556Z,13.94
2023-01-01T05:55:37.992Z,13.94
2023-01-01T06:00:46.199Z,13.97
2023-01-01T06:05:54.067Z,13.98
2023-01-01T06:11:04.492Z,13.98
2023-01-01T06:16:13.984Z,13.99
2023-01-01T06:21:24.041Z,14.00
2023-01-01T06:26:33.766Z,13.98
2023-01-01T06:31:43.018Z,13.95
2023-01-01T06:36:51.108Z,13.91
2023-01-01T06:41:59.780Z,13.88
2023-01-01T06:47:07.828Z,13.83
2023-01-01T06:52:15.901Z,13.81
2023-01-01T06:57:23.974Z,13.80
2023-01-01T07:02:32.307Z,13.79
2023-01-01T07:07:40.881Z,13.80
2023-01-01T07:12:48.929Z,13.80
2023-01-01T07:17:56.956Z,13.81
2023-01-01T07:23:05.030Z,13.81
2023-01-01T07:28:13.600Z,13.82
2023-01-01T07:33:23.706Z,13.84
2023-01-01T07:38:31.921Z,13.85
2023-01-01T07:43:40.263Z,13.86
2023-01-01T07:48:48.373Z,13.87
2023-01-01T07:54:00.689Z,13.89
2023-01-01T07:59:18.551Z,13.93
2023-01-01T08:04:30.932Z,13.98
2023-01-01T08:09:42.414Z,14.04
2023-01-01T08:14:50.790Z,14.11
2023-01-01T08:19:58.833Z,14.19
2023-01-01T08:25:07.545Z,14.26
2023-01-01T08:30:17.736Z,14.31
2023-01-01T08:35:25.499Z,14.38
2023-01-01T08:40:33.424Z,14.42
2023-01-01T08:45:41.627Z,14.46
2023-01-01T08:50:56.265Z,14.51
2023-01-01T08:56:06.003Z,14.55
2023-01-01T09:01:14.372Z,14.61
2023-01-01T09:06:22.510Z,14.67
2023-01-01T09:11:31.583Z,14.72
2023-01-01T09:16:44.215Z,14.75
2023-01-01T09:21:53.754Z,14.80
2023-01-01T09:27:01.840Z,14.84
2023-01-01T09:32:10.957Z,14.91
2023-01-01T09:37:19.179Z,15.04
2023-01-01T09:42:42.637Z,15.16
2023-01-01T09:47:54.632Z,15.29
2023-01-01T09:53:06.972Z,15.37
2023-01-01T09:58:15.745Z,15.39
2023-01-01T10:03:36.047Z,15.41
2023-01-01T10:08:58.729Z,15.43
2023-01-01T10:14:25.156Z,15.43
2023-01-01T10:19:38.385Z,15.41
2023-01-01T10:24:51.166Z,15.40
2023-01-01T10:30:04.612Z,15.41
2023-01-01T10:35:18.706Z,15.43
2023-01-01T10:40:29.297Z,15.44
2023-01-01T10:45:40.289Z,15.47
2023-01-01T10:50:51.653Z,15.50
2023-01-01T10:56:05.888Z,15.54
2023-01-01T11:01:21.212Z,15.58
2023-01-01T11:06:34.160Z,15.61
2023-01-01T11:11:46.987Z,15.64
2023-01-01T11:16:56.134Z,15.65
2023-01-01T11:22:04.982Z,15.66
2023-01-01T11:27:24.139Z,15.67
2023-01-01T11:32:37.006Z,15.67
2023-01-01T11:37:47.239Z,15.70
2023-01-01T11:42:58.860Z,15.75
2023-01-01T11:48:14.533Z,15.79
2023-01-01T11:53:31.629Z,15.81
2023-01-01T11:58:49.479Z,15.82
2023-01-01T12:04:01.626Z,15.84
2023-01-01T12:09:18.816Z,15.87
2023-01-01T12:14:35.302Z,15.89
2023-01-01T12:19:50.182Z,15.92
2023-01-01T12:24:58.985Z,15.91
2023-01-01T12:30:19.552Z,15.91
2023-01-01T12:35:44.318Z,15.90
2023-01-01T12:40:59.644Z,15.87
2023-01-01T12:46:33.309Z,15.83
2023-01-01T12:51:51.999Z,15.79
2023-01-01T12:57:05.820Z,15.76
2023-01-01T13:02:21.155Z,15.72
2023-01-01T13:07:33.557Z,15.68
2023-01-01T13:12:42.936Z,15.63
2023-01-01T13:17:56.064Z,15.57
2023-01-01T13:23:06.035Z,15.53
2023-01-01T13:28:18.422Z,15.49
2023-01-01T13:33:30.093Z,15.44
2023-01-01T13:38:51.614Z,15.41
2023-01-01T13:44:21.323Z,15.39
2023-01-01T13:49:45.921Z,15.37
2023-01-01T13:55:39.032Z,15.34
2023-01-01T14:01:05.217Z,15.30
2023-01-01T14:06:17.184Z,15.27
2023-01-01T14:11:26.538Z,15.25
2023-01-01T14:16:35.267Z,15.23
2023-01-01T14:21:45.111Z,15.21
2023-01-01T14:26:55.267Z,15.18
2023-01-01T14:32:19.474Z,15.16
2023-01-01T14:37:28.221Z,15.13
2023-01-01T14:42:36.843Z,15.13
2023-01-01T14:47:48.890Z,15.11
2023-01-01T14:53:03.646Z,15.08
2023-01-01T14:58:19.473Z,15.04
2023-01-01T15:03:28.528Z,15.01
2023-01-01T15:08:37.949Z,14.99
2023-01-01T15:13:58.729Z,14.96
2023-01-01T15:19:20.252Z,14.95
2023-01-01T15:24:29.687Z,14.92
2023-01-01T15:29:40.651Z,14.89
2023-01-01T15:34:56.281Z,14.87
2023-01-01T15:40:05.922Z,14.82
2023-01-01T15:45:21.172Z,14.79
2023-01-01T15:50:31.839Z,14.74
2023-01-01T15:55:48.411Z,14.69
2023-01-01T16:01:01.596Z,14.65
2023-01-01T16:06:10.539Z,14.62
2023-01-01T16:11:18.635Z,14.57
2023-01-01T16:16:32.117Z,14.52
2023-01-01T16:21:40.569Z,14.49
2023-01-01T16:26:49.684Z,14.45
2023-01-01T16:31:57.016Z,14.39
2023-01-01T16:37:05.353Z,14.34
2023-01-01T16:42:16.627Z,14.29
2023-01-01T16:47:24.995Z,14.26
2023-01-01T16:52:34.000Z,14.21
2023-01-01T16:57:42.108Z,14.18
2023-01-01T17:02:52.749Z,14.14
2023-01-01T17:08:01.247Z,14.11
2023-01-01T17:13:09.816Z,14.08
2023-01-01T17:18:23.964Z,14.03
2023-01-01T17:23:47.491Z,13.97
2023-01-01T17:29:00.583Z,13.94
2023-01-01T17:34:13.131Z,13.89
2023-01-01T17:39:21.939Z,13.84
2023-01-01T17:44:30.139Z,13.79
2023-01-01T17:49:38.086Z,13.75
2023-01-01T17:54:46.350Z,13.71
2023-01-01T17:59:59.372Z,13.66
2023-01-01T18:05:08.665Z,13.60
2023-01-01T18:10:17.652Z,13.55
2023-01-01T18:15:26.512Z,13.48
2023-01-01T18:20:34.451Z,13.44
2023-01-01T18:25:42.396Z,13.38
2023-01-01T18:30:50.366Z,13.31
2023-01-01T18:36:04.129Z,13.26
2023-01-01T18:41:31.423Z,13.22
2023-01-01T18:46:38.774Z,13.17
2023-01-01T18:51:49.133Z,13.14
2023-01-01T18:57:07.743Z,13.08
2023-01-01T19:02:29.290Z,13.03
2023-01-01T19:07:36.860Z,12.96
2023-01-01T19:12:45.860Z,12.89
2023-01-01T19:17:54.478Z,12.83
2023-01-01T19:23:01.736Z,12.78
2023-01-01T19:28:34.071Z,12.72
2023-01-01T19:33:45.863Z,12.64
2023-01-01T19:38:53.464Z,12.59
2023-01-01T19:44:00.643Z,12.54
2023-01-01T19:49:08.098Z,12.49
2023-01-01T19:54:15.496Z,12.39
2023-01-01T19:59:27.806Z,12.40
2023-01-01T20:04:40.399Z,12.34
2023-01-01T20:09:47.896Z,12.31
2023-01-01T20:14:56.649Z,12.25
2023-01-01T20:20:04.488Z,12.23
2023-01-01T20:25:12.895Z,12.20
2023-01-01T20:30:20.366Z,12.21
2023-01-01T20:35:44.920Z,12.21
2023-01-01T20:40:52.279Z,12.24
2023-01-01T20:45:59.516Z,12.25
2023-01-01T20:51:06.970Z,12.28
2023-01-01T20:56:14.345Z,12.26
2023-01-01T21:01:21.703Z,12.19
2023-01-01T21:06:29.234Z,12.23
2023-01-01T21:11:37.309Z,12.21
2023-01-01T21:16:47.247Z,12.21
2023-01-01T21:21:56.634Z,12.20
2023-01-01T21:27:13.203Z,12.19
2023-01-01T21:32:24.911Z,12.17
2023-01-01T21:37:50.333Z,12.15
2023-01-01T21:43:00.232Z,12.12
2023-01-01T21:48:17.101Z,12.12
2023-01-01T21:53:26.643Z,12.13
2023-01-01T21:59:02.530Z,12.12
2023-01-01T22:04:22.455Z,12.11
2023-01-01T22:09:36.350Z,12.09
2023-01-01T22:14:45.608Z,12.04
2023-01-01T22:19:53.690Z,11.98
2023-01-01T22:25:02.986Z,11.92
2023-01-01T22:30:38.287Z,11.85
2023-01-01T22:35:45.452Z,11.74
2023-01-01T22:40:53.894Z,11.68
2023-01-01T22:46:04.901Z,11.61
2023-01-01T22:51:19.091Z,11.55
2023-01-01T22:56:26.367Z,11.49
2023-01-01T23:01:33.925Z,11.41
2023-01-01T23:06:41.437Z,11.37
2023-01-01T23:11:48.817Z,11.35
2023-01-01T23:16:56.068Z,11.30
2023-01-01T23:22:04.914Z,11.29
2023-01-01T23:27:15.364Z,11.22
2023-01-01T23:32:22.902Z,11.11
2023-01-01T23:37:30.821Z,11.02
2023-01-01T23:42:38.308Z,10.90
2023-01-01T23:47:46.589Z,10.78
2023-01-01T23:52:54.073Z,10.65
2023-01-01T23:58:01.550Z,10.54
